createdAt,value
2022-09-12T00:01:57.164Z,101677.71
2022-09-12T00:04:29.760Z,101685.00
2022-09-12T00:06:58.038Z,101675.55
2022-09-12T00:09:31.619Z,101674.93
2022-09-12T00:11:59.665Z,101677.67
2022-09-12T00:14:27.665Z,101665.35
2022-09-12T00:16:57.110Z,101666.20
2022-09-12T00:19:24.990Z,101663.68
2022-09-12T00:21:57.724Z,101664.70
2022-09-12T00:24:32.915Z,101668.78
2022-09-12T00:27:00.933Z,101664.59
2022-09-12T00:29:29.373Z,101671.89
2022-09-12T00:32:02.114Z,101671.76
2022-09-12T00:34:30.160Z,101672.15
2022-09-12T00:37:01.367Z,101661.82
2022-09-12T00:39:35.139Z,101665.91
2022-09-12T00:42:03.086Z,101659.30
2022-09-12T00:44:30.923Z,101653.05
2022-09-12T00:47:12.043Z,101649.69
2022-09-12T00:50:06.624Z,101659.53
2022-09-12T00:52:54.867Z,101645.86
2022-09-12T00:55:28.361Z,101637.95
2022-09-12T00:58:04.025Z,101632.91
2022-09-12T01:00:35.056Z,101638.18
2022-09-12T01:03:10.699Z,101634.84
2022-09-12T01:05:40.443Z,101636.38
2022-09-12T01:08:14.043Z,101625.63
2022-09-12T01:10:42.108Z,101625.95
2022-09-12T01:13:35.179Z,101631.24
2022-09-12T01:16:04.933Z,101619.45
2022-09-12T01:18:59.115Z,101619.34
2022-09-12T01:21:37.809Z,101623.40
2022-09-12T01:24:21.312Z,101619.70
2022-09-12T01:27:48.933Z,101623.40
2022-09-12T01:30:34.103Z,101621.24
2022-09-12T01:33:13.683Z,101618.59
2022-09-12T01:36:02.404Z,101616.17
2022-09-12T01:38:48.419Z,101615.03
2022-09-12T01:41:36.315Z,101607.64
2022-09-12T01:44:23.928Z,101603.95
2022-09-12T01:47:09.622Z,101608.45
2022-09-12T01:49:41.925Z,101607.64
2022-09-12T01:52:25.699Z,101608.59
2022-09-12T01:55:06.473Z,101607.77
2022-09-12T01:57:43.427Z,101605.38
2022-09-12T02:00:14.246Z,101598.32
2022-09-12T02:03:06.005Z,101592.93
2022-09-12T02:05:39.086Z,101596.03
2022-09-12T02:08:15.962Z,101596.85
2022-09-12T02:10:50.976Z,101596.72
2022-09-12T02:13:23.052Z,101587.99
2022-09-12T02:15:57.660Z,101585.11
2022-09-12T02:18:26.725Z,101590.60
2022-09-12T02:20:59.073Z,101581.19
2022-09-12T02:23:33.236Z,101576.25
2022-09-12T02:26:25.325Z,101580.34
2022-09-12T02:29:01.060Z,101569.22
2022-09-12T02:31:53.418Z,101574.98
2022-09-12T02:34:30.337Z,101572.10
2022-09-12T02:37:33.778Z,101568.80
2022-09-12T02:40:02.191Z,101570.86
2022-09-12T02:42:35.091Z,101560.66
2022-09-12T02:45:07.529Z,101564.22
2022-09-12T02:47:40.259Z,101561.80
2022-09-12T02:50:13.518Z,101568.89
2022-09-12T02:52:46.324Z,101567.36
2022-09-12T02:55:14.396Z,101568.17
2022-09-12T02:57:44.997Z,101569.38
2022-09-12T03:00:16.586Z,101559.94
2022-09-12T03:02:49.127Z,101557.41
2022-09-12T03:05:40.804Z,101564.55
2022-09-12T03:08:37.137Z,101565.76
2022-09-12T03:11:22.548Z,101565.04
2022-09-12T03:14:06.147Z,101561.34
2022-09-12T03:16:48.652Z,101567.09
2022-09-12T03:19:53.339Z,101565.40
2022-09-12T03:22:27.560Z,101561.21
2022-09-12T03:25:02.273Z,101568.63
2022-09-12T03:27:36.545Z,101563.73
2022-09-12T03:30:12.233Z,101564.09
2022-09-12T03:32:51.383Z,101558.70
2022-09-12T03:35:23.052Z,101555.33
2022-09-12T03:38:03.370Z,101558.17
2022-09-12T03:40:31.201Z,101554.02
2022-09-12T03:43:03.622Z,101547.09
2022-09-12T03:45:34.818Z,101549.11
2022-09-12T03:48:03.067Z,101558.56
2022-09-12T03:50:35.752Z,101559.74
2022-09-12T03:53:04.377Z,101570.04
2022-09-12T03:55:32.364Z,101568.21
2022-09-12T03:58:06.009Z,101568.41
2022-09-12T04:00:38.620Z,101569.29
2022-09-12T04:03:06.429Z,101565.79
2022-09-12T04:05:38.915Z,101570.70
2022-09-12T04:08:06.875Z,101576.77
2022-09-12T04:10:34.719Z,101568.66
2022-09-12T04:13:02.521Z,101571.51
2022-09-12T04:15:34.939Z,101570.70
2022-09-12T04:18:06.001Z,101573.44
2022-09-12T04:20:34.140Z,101569.35
2022-09-12T04:23:13.883Z,101572.23
2022-09-12T04:25:41.664Z,101572.10
2022-09-12T04:28:13.475Z,101580.34
2022-09-12T04:30:41.399Z,101573.77
2022-09-12T04:33:17.085Z,101573.27
2022-09-12T04:35:46.924Z,101579.23
2022-09-12T04:38:19.345Z,101578.24
2022-09-12T04:40:51.888Z,101577.36
2022-09-12T04:43:24.396Z,101577.10
2022-09-12T04:45:53.165Z,101575.43
2022-09-12T04:48:26.833Z,101576.97
2022-09-12T04:50:54.706Z,101568.86
2022-09-12T04:53:22.650Z,101580.93
2022-09-12T04:55:50.585Z,101581.71
2022-09-12T04:58:30.745Z,101569.22
2022-09-12T05:01:11.825Z,101572.03
2022-09-12T05:03:44.638Z,101572.66
2022-09-12T05:06:25.181Z,101580.20
2022-09-12T05:08:59.739Z,101579.65
2022-09-12T05:11:59.702Z,101583.87
2022-09-12T05:14:24.591Z,101579.98
2022-09-12T05:16:52.650Z,101584.30
2022-09-12T05:19:20.681Z,101581.91
2022-09-12T05:21:48.533Z,101580.01
2022-09-12T05:24:16.597Z,101572.75
2022-09-12T05:26:44.476Z,101581.12
2022-09-12T05:29:12.767Z,101584.13
2022-09-12T05:31:40.752Z,101588.31
2022-09-12T05:34:11.424Z,101593.35
2022-09-12T05:36:42.069Z,101586.65
2022-09-12T05:39:17.736Z,101595.05
2022-09-12T05:41:45.859Z,101603.68
2022-09-12T05:44:19.035Z,101597.21
2022-09-12T05:46:51.482Z,101597.57
2022-09-12T05:49:24.467Z,101599.79
2022-09-12T05:51:52.824Z,101603.62
2022-09-12T05:54:34.636Z,101609.90
2022-09-12T05:57:07.273Z,101603.06
2022-09-12T05:59:45.289Z,101608.78
2022-09-12T06:02:18.572Z,101607.61
2022-09-12T06:04:57.159Z,101607.77
2022-09-12T06:07:50.206Z,101608.23
2022-09-12T06:10:20.572Z,101608.85
2022-09-12T06:12:48.953Z,101608.78
2022-09-12T06:15:19.583Z,101616.53
2022-09-12T06:17:51.469Z,101613.82
2022-09-12T06:20:33.571Z,101612.74
2022-09-12T06:23:06.345Z,101615.29
2022-09-12T06:25:38.900Z,101618.40
2022-09-12T06:28:11.414Z,101615.32
2022-09-12T06:30:44.029Z,101619.48
2022-09-12T06:33:26.515Z,101613.52
2022-09-12T06:35:54.720Z,101614.15
2022-09-12T06:39:00.908Z,101606.01
2022-09-12T06:41:35.408Z,101605.05
2022-09-12T06:44:09.108Z,101605.88
2022-09-12T06:46:50.983Z,101613.07
2022-09-12T06:49:25.201Z,101608.78
2022-09-12T06:51:58.891Z,101603.78
2022-09-12T06:54:28.444Z,101611.70
2022-09-12T06:56:56.348Z,101597.21
2022-09-12T06:59:33.423Z,101599.01
2022-09-12T07:02:04.677Z,101600.05
2022-09-12T07:04:34.783Z,101599.59
2022-09-12T07:07:02.647Z,101602.08
2022-09-12T07:09:35.098Z,101603.03
2022-09-12T07:12:07.987Z,101601.49
2022-09-12T07:14:35.877Z,101599.59
2022-09-12T07:17:03.772Z,101600.51
2022-09-12T07:19:31.696Z,101600.74
2022-09-12T07:22:11.879Z,101607.18
2022-09-12T07:24:41.313Z,101607.77
2022-09-12T07:27:16.162Z,101605.74
2022-09-12T07:29:48.712Z,101602.87
2022-09-12T07:32:22.193Z,101602.24
2022-09-12T07:34:51.131Z,101600.67
2022-09-12T07:37:22.139Z,101601.16
2022-09-12T07:39:54.909Z,101595.51
2022-09-12T07:42:23.045Z,101602.34
2022-09-12T07:44:52.050Z,101604.47
2022-09-12T07:47:25.667Z,101602.38
2022-09-12T07:49:54.312Z,101596.16
2022-09-12T07:52:22.236Z,101606.43
2022-09-12T07:54:50.305Z,101600.22
2022-09-12T07:57:22.916Z,101596.49
2022-09-12T07:59:53.480Z,101589.23
2022-09-12T08:02:28.345Z,101594.73
2022-09-12T08:05:01.355Z,101593.88
2022-09-12T08:07:29.474Z,101592.63
2022-09-12T08:10:02.561Z,101596.09
2022-09-12T08:12:37.880Z,101602.63
2022-09-12T08:15:12.590Z,101602.34
2022-09-12T08:17:40.812Z,101599.83
2022-09-12T08:20:13.307Z,101604.50
2022-09-12T08:22:41.865Z,101595.80
2022-09-12T08:25:10.218Z,101596.78
2022-09-12T08:27:38.863Z,101591.59
2022-09-12T08:30:15.035Z,101596.95
2022-09-12T08:32:48.403Z,101596.82
2022-09-12T08:35:27.133Z,101588.77
2022-09-12T08:37:55.274Z,101585.27
2022-09-12T08:40:23.081Z,101593.05
2022-09-12T08:43:06.866Z,101585.34
2022-09-12T08:46:01.327Z,101585.80
2022-09-12T08:48:29.207Z,101589.98
2022-09-12T08:51:02.117Z,101594.23
2022-09-12T08:53:29.974Z,101591.88
2022-09-12T08:56:00.415Z,101594.33
2022-09-12T08:58:29.428Z,101596.66
2022-09-12T09:01:00.688Z,101596.30
2022-09-12T09:03:40.258Z,101598.35
2022-09-12T09:06:32.888Z,101602.18
2022-09-12T09:09:18.499Z,101598.12
2022-09-12T09:11:58.343Z,101599.83
2022-09-12T09:14:50.045Z,101597.02
2022-09-12T09:17:43.859Z,101599.17
2022-09-12T09:20:43.193Z,101595.18
2022-09-12T09:23:25.389Z,101588.02
2022-09-12T09:26:15.858Z,101588.05
2022-09-12T09:28:49.565Z,101587.66
2022-09-12T09:31:23.579Z,101588.97
2022-09-12T09:33:52.908Z,101593.19
2022-09-12T09:36:39.625Z,101587.50
2022-09-12T09:39:32.554Z,101585.05
2022-09-12T09:42:50.025Z,101589.30
2022-09-12T09:45:30.957Z,101581.84
2022-09-12T09:48:05.490Z,101585.66
2022-09-12T09:50:34.849Z,101581.02
2022-09-12T09:53:03.649Z,101584.85
2022-09-12T09:55:40.369Z,101581.52
2022-09-12T09:58:33.530Z,101589.00
2022-09-12T10:01:07.995Z,101584.85
2022-09-12T10:03:42.886Z,101593.16
2022-09-12T10:06:38.259Z,101579.39
2022-09-12T10:09:24.959Z,101584.78
2022-09-12T10:12:18.279Z,101588.58
2022-09-12T10:15:17.213Z,101573.15
2022-09-12T10:17:47.514Z,101573.57
2022-09-12T10:20:40.860Z,101573.21
2022-09-12T10:23:24.795Z,101568.60
2022-09-12T10:25:57.811Z,101571.54
2022-09-12T10:29:16.610Z,101565.66
2022-09-12T10:31:47.458Z,101566.90
2022-09-12T10:34:38.095Z,101561.15
2022-09-12T10:37:11.266Z,101559.48
2022-09-12T10:39:39.748Z,101559.87
2022-09-12T10:42:07.756Z,101571.51
2022-09-12T10:44:36.370Z,101561.51
2022-09-12T10:47:24.046Z,101564.38
2022-09-12T10:49:55.397Z,101564.02
2022-09-12T10:52:24.968Z,101559.84
2022-09-12T10:54:53.388Z,101556.57
2022-09-12T10:57:36.715Z,101546.17
2022-09-12T11:00:17.045Z,101548.27
2022-09-12T11:03:06.360Z,101554.09
2022-09-12T11:06:02.637Z,101548.27
2022-09-12T11:09:00.637Z,101545.78
2022-09-12T11:11:42.308Z,101547.02
2022-09-12T11:14:34.884Z,101537.90
2022-09-12T11:17:53.135Z,101531.66
2022-09-12T11:20:33.189Z,101540.38
2022-09-12T11:23:13.168Z,101542.84
2022-09-12T11:26:01.898Z,101539.50
2022-09-12T11:28:51.051Z,101544.86
2022-09-12T11:31:36.880Z,101541.07
2022-09-12T11:34:10.752Z,101529.40
2022-09-12T11:36:45.390Z,101529.76
2022-09-12T11:39:37.975Z,101525.15
2022-09-12T11:42:13.344Z,101525.51
2022-09-12T11:44:44.094Z,101523.88
2022-09-12T11:47:13.912Z,101516.81
2022-09-12T11:49:49.990Z,101517.66
2022-09-12T11:52:23.584Z,101512.59
2022-09-12T11:55:06.288Z,101514.62
2022-09-12T11:57:56.985Z,101514.16
2022-09-12T12:00:46.345Z,101504.84
2022-09-12T12:03:39.196Z,101501.54
2022-09-12T12:06:43.889Z,101499.68
2022-09-12T12:09:12.442Z,101507.03
2022-09-12T12:11:47.315Z,101493.59
2022-09-12T12:14:40.300Z,101500.13
2022-09-12T12:17:34.692Z,101497.59
2022-09-12T12:20:08.872Z,101493.70
2022-09-12T12:22:39.166Z,101492.84
2022-09-12T12:25:20.844Z,101497.87
2022-09-12T12:28:02.745Z,101488.43
2022-09-12T12:30:58.535Z,101490.55
2022-09-12T12:33:32.109Z,101496.70
2022-09-12T12:36:00.754Z,101489.57
2022-09-12T12:38:56.421Z,101494.51
2022-09-12T12:41:30.159Z,101480.65
2022-09-12T12:44:00.525Z,101477.15
2022-09-12T12:46:31.577Z,101465.51
2022-09-12T12:49:30.196Z,101464.43
2022-09-12T12:52:02.785Z,101459.55
2022-09-12T12:54:35.411Z,101464.01
2022-09-12T12:57:35.877Z,101456.23
2022-09-12T13:00:32.683Z,101458.61
2022-09-12T13:03:08.739Z,101454.13
2022-09-12T13:06:13.574Z,101454.33
2022-09-12T13:09:08.142Z,101441.09
2022-09-12T13:11:42.803Z,101436.80
2022-09-12T13:14:45.066Z,101436.18
2022-09-12T13:17:34.870Z,101433.17
2022-09-12T13:20:28.451Z,101425.06
2022-09-12T13:22:58.244Z,101427.16
2022-09-12T13:25:28.016Z,101418.23
2022-09-12T13:28:36.105Z,101417.02
2022-09-12T13:31:26.364Z,101413.59
2022-09-12T13:34:00.891Z,101413.59
2022-09-12T13:37:06.142Z,101415.55
2022-09-12T13:39:51.013Z,101403.65
2022-09-12T13:42:31.958Z,101399.16
2022-09-12T13:45:05.117Z,101402.02
2022-09-12T13:47:38.595Z,101401.62
2022-09-12T13:50:26.809Z,101397.56
2022-09-12T13:53:08.621Z,101400.34
2022-09-12T13:55:38.970Z,101408.88
2022-09-12T13:58:39.703Z,101401.81
2022-09-12T14:01:14.377Z,101405.28
2022-09-12T14:04:22.845Z,101398.68
2022-09-12T14:06:53.145Z,101394.20
2022-09-12T14:09:56.473Z,101384.72
2022-09-12T14:13:01.752Z,101382.00
2022-09-12T14:15:34.971Z,101387.23
2022-09-12T14:18:04.554Z,101385.11
2022-09-12T14:20:40.115Z,101384.16
2022-09-12T14:23:32.648Z,101383.67
2022-09-12T14:26:08.071Z,101371.05
2022-09-12T14:28:42.061Z,101374.48
2022-09-12T14:31:46.265Z,101373.37
2022-09-12T14:34:16.239Z,101377.59
2022-09-12T14:36:49.322Z,101372.69
2022-09-12T14:39:42.615Z,101376.15
2022-09-12T14:42:28.587Z,101368.80
2022-09-12T14:45:18.538Z,101373.01
2022-09-12T14:47:54.136Z,101370.62
2022-09-12T14:50:27.537Z,101365.82
2022-09-12T14:53:27.328Z,101363.82
2022-09-12T14:56:00.350Z,101363.53
2022-09-12T14:58:32.962Z,101364.15
2022-09-12T15:01:03.012Z,101359.34
2022-09-12T15:03:48.733Z,101362.02
2022-09-12T15:06:30.577Z,101360.59
2022-09-12T15:09:00.909Z,101363.70
2022-09-12T15:11:28.760Z,101359.57
2022-09-12T15:13:56.763Z,101358.10
2022-09-12T15:16:30.357Z,101354.80
2022-09-12T15:19:03.238Z,101356.23
2022-09-12T15:21:46.821Z,101352.51
2022-09-12T15:24:14.891Z,101352.18
2022-09-12T15:26:47.622Z,101355.95
2022-09-12T15:29:20.729Z,101355.59
2022-09-12T15:31:53.556Z,101345.25
2022-09-12T15:34:21.542Z,101346.59
2022-09-12T15:36:54.393Z,101347.90
2022-09-12T15:39:22.267Z,101334.20
2022-09-12T15:41:50.686Z,101336.33
2022-09-12T15:44:18.453Z,101333.84
2022-09-12T15:46:49.451Z,101327.66
2022-09-12T15:49:21.886Z,101329.75
2022-09-12T15:51:54.407Z,101327.30
2022-09-12T15:54:27.195Z,101327.73
2022-09-12T15:56:55.251Z,101333.13
2022-09-12T15:59:50.733Z,101322.37
2022-09-12T16:02:23.277Z,101323.21
2022-09-12T16:04:55.766Z,101324.06
2022-09-12T16:07:23.872Z,101328.67
2022-09-12T16:09:56.700Z,101325.77
2022-09-12T16:12:29.671Z,101329.49
2022-09-12T16:15:02.092Z,101331.20
2022-09-12T16:17:34.668Z,101324.16
2022-09-12T16:20:07.286Z,101322.07
2022-09-12T16:22:35.186Z,101314.19
2022-09-12T16:25:09.250Z,101318.37
2022-09-12T16:28:02.151Z,101313.80
2022-09-12T16:30:30.032Z,101311.31
2022-09-12T16:32:57.867Z,101315.89
2022-09-12T16:35:25.686Z,101306.73
2022-09-12T16:38:02.943Z,101312.98
2022-09-12T16:40:31.568Z,101305.88
2022-09-12T16:43:04.269Z,101307.55
2022-09-12T16:45:37.198Z,101298.82
2022-09-12T16:48:05.059Z,101300.49
2022-09-12T16:50:36.154Z,101300.95
2022-09-12T16:53:04.208Z,101303.40
2022-09-12T16:55:34.787Z,101291.80
2022-09-12T16:58:02.703Z,101298.43
2022-09-12T17:00:35.172Z,101302.62
2022-09-12T17:03:03.169Z,101300.95
2022-09-12T17:05:36.001Z,101301.77
2022-09-12T17:08:04.165Z,101296.41
2022-09-12T17:10:39.660Z,101303.04
2022-09-12T17:13:10.573Z,101305.92
2022-09-12T17:15:43.071Z,101306.34
2022-09-12T17:18:17.163Z,101306.77
2022-09-12T17:21:09.958Z,101299.31
2022-09-12T17:23:38.270Z,101302.23
2022-09-12T17:26:20.168Z,101295.98
2022-09-12T17:28:48.268Z,101300.52
2022-09-12T17:31:20.949Z,101304.22
2022-09-12T17:33:48.937Z,101309.22
2022-09-12T17:36:22.989Z,101310.01
2022-09-12T17:38:56.650Z,101310.01
2022-09-12T17:41:32.239Z,101316.19
2022-09-12T17:44:05.156Z,101308.24
2022-09-12T17:46:39.258Z,101311.97
2022-09-12T17:49:13.242Z,101309.02
2022-09-12T17:51:41.565Z,101312.75
2022-09-12T17:54:17.496Z,101313.11
2022-09-12T17:56:46.617Z,101319.68
2022-09-12T17:59:21.470Z,101322.13
2022-09-12T18:02:07.699Z,101317.95
2022-09-12T18:04:41.816Z,101317.07
2022-09-12T18:07:09.732Z,101320.77
2022-09-12T18:09:39.626Z,101319.45
2022-09-12T18:12:07.976Z,101324.36
2022-09-12T18:14:47.779Z,101321.05
2022-09-12T18:17:20.409Z,101327.20
2022-09-12T18:19:53.839Z,101331.29
2022-09-12T18:22:22.008Z,101323.38
2022-09-12T18:24:55.047Z,101323.34
2022-09-12T18:27:27.478Z,101324.52
2022-09-12T18:30:20.655Z,101324.91
2022-09-12T18:32:54.852Z,101321.91
2022-09-12T18:35:35.033Z,101318.51
2022-09-12T18:38:08.060Z,101327.17
2022-09-12T18:41:02.431Z,101326.32
2022-09-12T18:43:30.705Z,101326.62
2022-09-12T18:45:58.799Z,101328.58
2022-09-12T18:48:30.841Z,101326.48
2022-09-12T18:51:12.607Z,101323.51
2022-09-12T18:53:46.302Z,101317.69
2022-09-12T18:56:19.947Z,101324.66
2022-09-12T18:59:01.029Z,101330.41
2022-09-12T19:01:33.835Z,101328.74
2022-09-12T19:04:11.088Z,101328.25
2022-09-12T19:06:43.442Z,101326.95
2022-09-12T19:09:25.677Z,101328.97
2022-09-12T19:11:56.888Z,101323.02
2022-09-12T19:14:25.092Z,101322.95
2022-09-12T19:16:53.399Z,101323.41
2022-09-12T19:19:24.892Z,101322.49
2022-09-12T19:22:00.698Z,101324.09
2022-09-12T19:24:41.316Z,101321.16
2022-09-12T19:27:15.210Z,101327.66
2022-09-12T19:29:56.958Z,101328.45
2022-09-12T19:32:30.485Z,101330.02
2022-09-12T19:34:59.442Z,101325.02
2022-09-12T19:37:27.308Z,101324.55
2022-09-12T19:39:55.899Z,101323.25
2022-09-12T19:42:43.914Z,101324.03
2022-09-12T19:45:24.174Z,101316.91
2022-09-12T19:47:52.163Z,101313.57
2022-09-12T19:50:24.961Z,101313.96
2022-09-12T19:52:57.610Z,101308.93
2022-09-12T19:55:26.846Z,101312.20
2022-09-12T19:58:17.532Z,101312.20
2022-09-12T20:00:49.157Z,101304.71
2022-09-12T20:03:22.641Z,101307.45
2022-09-12T20:05:55.524Z,101314.87
2022-09-12T20:08:28.215Z,101315.20
2022-09-12T20:11:10.514Z,101314.32
2022-09-12T20:13:38.290Z,101322.07
2022-09-12T20:16:23.081Z,101319.95
2022-09-12T20:19:13.426Z,101321.55
2022-09-12T20:21:44.236Z,101322.40
2022-09-12T20:24:17.223Z,101325.14
2022-09-12T20:26:45.072Z,101327.20
2022-09-12T20:29:15.621Z,101319.78
2022-09-12T20:31:43.510Z,101322.66
2022-09-12T20:34:22.235Z,101322.98
2022-09-12T20:36:50.063Z,101325.80
2022-09-12T20:39:22.391Z,101326.59
2022-09-12T20:41:50.360Z,101327.83
2022-09-12T20:44:18.352Z,101327.34
2022-09-12T20:46:46.264Z,101328.58
2022-09-12T20:49:14.258Z,101328.48
2022-09-12T20:51:42.062Z,101330.12
2022-09-12T20:54:10.761Z,101330.51
2022-09-12T20:56:38.744Z,101326.71
2022-09-12T20:59:06.792Z,101339.04
2022-09-12T21:01:34.753Z,101332.34
2022-09-12T21:04:03.017Z,101334.33
2022-09-12T21:06:30.845Z,101339.66
2022-09-12T21:09:01.667Z,101340.41
2022-09-12T21:11:29.679Z,101335.80
2022-09-12T21:13:57.790Z,101336.52
2022-09-12T21:16:25.774Z,101337.27
2022-09-12T21:18:55.203Z,101330.15
2022-09-12T21:21:23.008Z,101325.90
2022-09-12T21:23:52.118Z,101321.71
2022-09-12T21:26:19.935Z,101312.16
2022-09-12T21:28:47.685Z,101305.88
2022-09-12T21:31:15.633Z,101307.06
2022-09-12T21:33:43.451Z,101304.84
2022-09-12T21:36:11.553Z,101311.37
2022-09-12T21:38:39.390Z,101320.80
2022-09-12T21:41:11.773Z,101315.79
2022-09-12T21:43:40.043Z,101312.00
2022-09-12T21:46:08.027Z,101310.34
2022-09-12T21:48:35.910Z,101306.54
2022-09-12T21:51:03.751Z,101306.93
2022-09-12T21:53:32.173Z,101316.77
2022-09-12T21:56:04.593Z,101317.85
2022-09-12T21:58:32.531Z,101321.48
2022-09-12T22:01:01.614Z,101310.34
2022-09-12T22:03:29.913Z,101315.27
2022-09-12T22:06:02.778Z,101310.73
2022-09-12T22:08:31.135Z,101299.94
2022-09-12T22:11:03.233Z,101308.11
2022-09-12T22:13:34.819Z,101300.23
2022-09-12T22:16:04.062Z,101302.29
2022-09-12T22:18:34.941Z,101305.85
2022-09-12T22:21:06.049Z,101303.73
2022-09-12T22:23:52.531Z,101307.36
2022-09-12T22:26:20.290Z,101303.17
2022-09-12T22:28:48.673Z,101300.66
2022-09-12T22:31:16.792Z,101303.37
2022-09-12T22:33:44.748Z,101304.97
2022-09-12T22:36:17.237Z,101299.61
2022-09-12T22:38:45.148Z,101306.54
2022-09-12T22:41:12.999Z,101292.45
2022-09-12T22:43:40.880Z,101285.74
2022-09-12T22:46:13.178Z,101281.95
2022-09-12T22:48:41.625Z,101269.13
2022-09-12T22:51:09.565Z,101276.95
2022-09-12T22:53:38.802Z,101265.84
2022-09-12T22:56:06.710Z,101272.41
2022-09-12T22:58:35.355Z,101276.95
2022-09-12T23:01:03.154Z,101281.43
2022-09-12T23:03:31.045Z,101269.07
2022-09-12T23:05:58.922Z,101276.03
2022-09-12T23:08:30.606Z,101275.12
2022-09-12T23:11:05.875Z,101272.24
2022-09-12T23:13:34.094Z,101274.66
2022-09-12T23:16:02.329Z,101281.63
2022-09-12T23:18:30.155Z,101281.63
2022-09-12T23:21:01.591Z,101285.35
2022-09-12T23:23:29.696Z,101286.92
2022-09-12T23:26:14.090Z,101292.22
2022-09-12T23:28:42.706Z,101295.81
2022-09-12T23:31:10.927Z,101298.23
2022-09-12T23:33:38.919Z,101296.93
2022-09-12T23:36:08.630Z,101291.56
2022-09-12T23:38:36.616Z,101288.30
2022-09-12T23:41:04.729Z,101280.87
2022-09-12T23:43:32.711Z,101273.45
2022-09-12T23:46:00.615Z,101261.38
2022-09-12T23:48:28.485Z,101270.84
2022-09-12T23:50:56.366Z,101258.51
2022-09-12T23:53:24.313Z,101256.09
2022-09-12T23:55:52.303Z,101256.84
2022-09-12T23:58:20.140Z,101260.08
